Eviapetrol I — SY5401 — position and weather

sailwx.info

Track history (hours):
 
Tides and Currents Weather Stations Pressure Air Temp Water Temp Dewpoint Dewpoint Depression Visibility Wind Speed Wind Dir Waves Ship Positions

Eviapetrol I

Last reported at 2015-May-03 22:16 UTC. Time now 2015-May-04 02:00 UTC.
Position N 37°54' E 023°05'.

Length 75 m; draft 5.2 m.

Type: Tanker. MMSI: 240285000.

Date/timePositionNaut miles runAvg speedWind from/ knotsBaromVisibWave heightAir tempDewpointWater temp
2015-May-03 22:16N 37°54' E 023°05'7 9.4
2015-May-03 21:31N 37°55' E 023°14'9 9.3
2015-May-03 20:33N 37°57' E 023°24'7 6.7
2015-May-03 19:33N 38°02' E 023°31'0 0.2
2015-May-03 18:33N 38°02' E 023°31'1 0.5
2015-May-03 17:33N 38°02' E 023°30'0 0.3
2015-May-03 16:33N 38°02' E 023°31'0 0.0
2015-May-03 15:33N 38°02' E 023°31'0 0.0
2015-May-03 14:33N 38°02' E 023°31'0 0.0
2015-May-03 13:34N 38°02' E 023°31'0 0.0
2015-May-03 12:33N 38°02' E 023°31'0 0.0
2015-May-03 11:33N 38°02' E 023°31'0 0.0
2015-May-03 10:33N 38°02' E 023°31'0 0.0
2015-May-03 09:33N 38°02' E 023°31'0 0.0
2015-May-03 08:33N 38°02' E 023°31'0 0.0
2015-May-03 07:33N 38°02' E 023°31'0 0.0
2015-May-03 06:32N 38°02' E 023°31'0 0.2
2015-May-03 05:33N 38°02' E 023°30'6 6.0
2015-May-03 04:33N 37°57' E 023°35'2 2.2
2015-May-03 03:33N 37°55' E 023°36'4 3.8
2015-May-03 02:33N 37°52' E 023°39'8 8.2
2015-May-03 01:33N 37°45' E 023°43'8 7.8
2015-May-03 00:32N 37°38' E 023°49'117 5.1
2015-May-02 01:27N 35°53' E 024°53'33 7.7
2015-May-01 21:13N 35°21' E 025°03'0 0.0
2015-May-01 19:23N 35°21' E 025°03'0 0.0
2015-May-01 18:32N 35°21' E 025°03'0 0.0
2015-May-01 17:32N 35°21' E 025°03'0 0.0
2015-May-01 15:33N 35°21' E 025°03'0 0.0
2015-May-01 14:32N 35°21' E 025°03'0 0.0
2015-May-01 13:32N 35°21' E 025°03'0 0.0
2015-May-01 12:31N 35°21' E 025°03'0 0.0
2015-May-01 11:30N 35°21' E 025°03'0 0.0
2015-May-01 05:32N 35°21' E 025°03'0 0.0
2015-May-01 04:20N 35°21' E 025°03'18 4.7
2015-May-01 00:33N 35°38' E 024°56'14 9.7
2015-Apr-30 23:08N 35°50' E 024°48'6 9.8
2015-Apr-30 22:33N 35°55' E 024°44'103 9.4
2015-Apr-30 11:33N 37°28' E 023°48'9 9.1
2015-Apr-30 10:34N 37°36' E 023°44'9 9.1
2015-Apr-30 09:33N 37°45' E 023°39'9 9.1
2015-Apr-30 08:33N 37°53' E 023°36'8 7.8
2015-Apr-30 07:33N 38°01' E 023°33'1 0.9
2015-Apr-30 06:33N 38°01' E 023°32'1 0.1
2015-Apr-30 00:14N 38°02' E 023°33'1 0.1
2015-Apr-29 10:29N 38°01' E 023°35'0 0.1
2015-Apr-29 09:33N 38°01' E 023°35'1 1.2
2015-Apr-29 08:32N 38°01' E 023°33'4 4.1
2015-Apr-29 07:33N 37°57' E 023°35'9 9.0
2015-Apr-29 06:34N 37°49' E 023°40'10 9.8
2015-Apr-29 05:33N 37°41' E 023°46'58 9.5
2015-Apr-28 23:27N 37°09' E 024°47'46 8.6
2015-Apr-28 18:06N 36°33' E 025°23'5 9.4
2015-Apr-28 17:33N 36°29' E 025°27'4 4.3
2015-Apr-28 16:33N 36°25' E 025°29'0 0.1
2015-Apr-28 15:31N 36°25' E 025°29'0 0.0
2015-Apr-28 14:33N 36°25' E 025°29'0 0.0
2015-Apr-28 13:32N 36°25' E 025°29'0 0.0
2015-Apr-28 12:32N 36°25' E 025°29'0 0.0
2015-Apr-28 11:31N 36°25' E 025°29'0 0.0
2015-Apr-28 10:30N 36°25' E 025°29'0 0.0
2015-Apr-28 09:32N 36°25' E 025°29'0 0.0
2015-Apr-28 08:32N 36°25' E 025°29'0 0.0
2015-Apr-28 07:33N 36°25' E 025°29'0 0.0
2015-Apr-28 06:33N 36°25' E 025°29'0 0.0
2015-Apr-28 05:33N 36°25' E 025°29'0 0.0
2015-Apr-28 04:32N 36°25' E 025°29'0 0.0
2015-Apr-28 03:31N 36°25' E 025°29'0 0.0
2015-Apr-28 02:33N 36°25' E 025°29'0 0.0
2015-Apr-28 01:32N 36°25' E 025°29'0 0.0
2015-Apr-28 00:31N 36°25' E 025°29'0 0.0
2015-Apr-27 23:33N 36°25' E 025°29'0 0.0
2015-Apr-27 22:33N 36°25' E 025°29'0 0.0
2015-Apr-27 21:32N 36°25' E 025°29'0 0.0
2015-Apr-27 20:30N 36°25' E 025°29'0 0.0
2015-Apr-27 19:33N 36°25' E 025°29'0 0.0
2015-Apr-27 18:32N 36°25' E 025°29'0 0.0
2015-Apr-27 17:32N 36°25' E 025°29'0 0.0
2015-Apr-27 16:33N 36°25' E 025°29'0 0.0
2015-Apr-27 15:32N 36°25' E 025°29'0 0.0
2015-Apr-27 14:31N 36°25' E 025°29'0 0.0
2015-Apr-27 13:30N 36°25' E 025°29'0 0.0
2015-Apr-27 12:33N 36°25' E 025°29'0 0.0
2015-Apr-27 11:32N 36°25' E 025°29'0 0.0
2015-Apr-27 10:33N 36°25' E 025°29'0 0.0
2015-Apr-27 09:32N 36°25' E 025°29'0 0.0
2015-Apr-27 08:31N 36°25' E 025°29'0 0.0
2015-Apr-27 07:32N 36°25' E 025°29'0 0.0
2015-Apr-27 06:32N 36°25' E 025°29'5 4.8
2015-Apr-27 05:33N 36°27' E 025°34'10 9.8
2015-Apr-27 04:33N 36°30' E 025°46'9 9.4
2015-Apr-27 03:33N 36°34' E 025°56'32 9.5
2015-Apr-27 00:11N 36°44' E 026°34'10 9.9
2015-Apr-26 23:10N 36°47' E 026°46'52 2.4
2015-Apr-26 01:29N 37°10' E 025°48'9 9.4
2015-Apr-26 00:33N 37°12' E 025°37'9 9.5
2015-Apr-25 23:33N 37°15' E 025°26'10 9.6
2015-Apr-25 22:33N 37°17' E 025°14'10 9.6
2015-Apr-25 21:33N 37°18' E 025°02'10 9.6
2015-Apr-25 20:33N 37°20' E 024°50'30 9.2
2015-Apr-25 17:17N 37°30' E 024°14'10 9.2
2015-Apr-25 16:14N 37°34' E 024°03'9 9.6
2015-Apr-25 15:15N 37°37' E 023°52'7 9.4
2015-Apr-25 14:33N 37°39' E 023°44'9 9.3
2015-Apr-25 13:33N 37°47' E 023°38'9 9.0
2015-Apr-25 12:33N 37°56' E 023°36'6 6.3
2015-Apr-25 11:33N 38°02' E 023°32'0 0.0
2015-Apr-25 10:33N 38°02' E 023°32'0 0.0
2015-Apr-25 09:33N 38°02' E 023°32'0 0.0
2015-Apr-25 08:33N 38°02' E 023°32'0 0.1
2015-Apr-25 07:33N 38°02' E 023°32'0 0.0
2015-Apr-25 06:31N 38°02' E 023°32'0 0.0
2015-Apr-25 05:14N 38°02' E 023°32'0 0.0
2015-Apr-25 03:33N 38°02' E 023°32'3 2.8
2015-Apr-25 02:33N 38°02' E 023°36'0 0.0
2015-Apr-25 01:33N 38°02' E 023°36'0 0.0
2015-Apr-25 00:32N 38°02' E 023°36'0 0.0
2015-Apr-24 23:33N 38°02' E 023°36'0 0.0
2015-Apr-24 22:33N 38°02' E 023°36'0 0.0
2015-Apr-24 21:33N 38°02' E 023°36'0 0.0
2015-Apr-24 20:33N 38°02' E 023°36'0 0.0
2015-Apr-24 19:33N 38°02' E 023°36'0 0.0
2015-Apr-24 18:33N 38°02' E 023°36'0 0.0
2015-Apr-24 17:33N 38°02' E 023°36'0 0.0
2015-Apr-24 16:32N 38°02' E 023°36'4 4.1
2015-Apr-24 15:33N 38°02' E 023°31'0 0.0
2015-Apr-24 14:33N 38°02' E 023°31'0 0.0
2015-Apr-24 13:33N 38°02' E 023°31'0 0.0
2015-Apr-24 12:34N 38°02' E 023°31'0 0.0
2015-Apr-24 11:33N 38°02' E 023°31'0 0.0
2015-Apr-24 10:34N 38°02' E 023°31'0 0.0
2015-Apr-24 09:33N 38°02' E 023°31'1 1.3
2015-Apr-24 08:33N 38°01' E 023°32'6 5.7
2015-Apr-24 07:34N 37°57' E 023°36'9 9.3
2015-Apr-24 06:33N 37°48' E 023°41'10 9.4
2015-Apr-24 05:32N 37°40' E 023°48'13 9.4
2015-Apr-24 04:09N 37°38' E 024°04'  
Track history (hours):
 
Tides and Currents Weather Stations Pressure Air Temp Water Temp Dewpoint Dewpoint Depression Visibility Wind Speed Wind Dir Waves Ship Positions

Eviapetrol I

Last reported at 2015-May-03 22:16 UTC. Time now 2015-May-04 02:00 UTC.
Position N 37°54' E 023°05'.

Length 75 m; draft 5.2 m.

Type: Tanker. MMSI: 240285000.

Date/timePositionNaut miles runAvg speedWind from/ knotsBaromVisibWave heightAir tempDewpointWater temp
2015-May-03 22:16N 37°54' E 023°05'7 9.4
2015-May-03 21:31N 37°55' E 023°14'9 9.3
2015-May-03 20:33N 37°57' E 023°24'7 6.7
2015-May-03 19:33N 38°02' E 023°31'0 0.2
2015-May-03 18:33N 38°02' E 023°31'1 0.5
2015-May-03 17:33N 38°02' E 023°30'0 0.3
2015-May-03 16:33N 38°02' E 023°31'0 0.0
2015-May-03 15:33N 38°02' E 023°31'0 0.0
2015-May-03 14:33N 38°02' E 023°31'0 0.0
2015-May-03 13:34N 38°02' E 023°31'0 0.0
2015-May-03 12:33N 38°02' E 023°31'0 0.0
2015-May-03 11:33N 38°02' E 023°31'0 0.0
2015-May-03 10:33N 38°02' E 023°31'0 0.0
2015-May-03 09:33N 38°02' E 023°31'0 0.0
2015-May-03 08:33N 38°02' E 023°31'0 0.0
2015-May-03 07:33N 38°02' E 023°31'0 0.0
2015-May-03 06:32N 38°02' E 023°31'0 0.2
2015-May-03 05:33N 38°02' E 023°30'6 6.0
2015-May-03 04:33N 37°57' E 023°35'2 2.2
2015-May-03 03:33N 37°55' E 023°36'4 3.8
2015-May-03 02:33N 37°52' E 023°39'8 8.2
2015-May-03 01:33N 37°45' E 023°43'8 7.8
2015-May-03 00:32N 37°38' E 023°49'117 5.1
2015-May-02 01:27N 35°53' E 024°53'33 7.7
2015-May-01 21:13N 35°21' E 025°03'0 0.0
2015-May-01 19:23N 35°21' E 025°03'0 0.0
2015-May-01 18:32N 35°21' E 025°03'0 0.0
2015-May-01 17:32N 35°21' E 025°03'0 0.0
2015-May-01 15:33N 35°21' E 025°03'0 0.0
2015-May-01 14:32N 35°21' E 025°03'0 0.0
2015-May-01 13:32N 35°21' E 025°03'0 0.0
2015-May-01 12:31N 35°21' E 025°03'0 0.0
2015-May-01 11:30N 35°21' E 025°03'0 0.0
2015-May-01 05:32N 35°21' E 025°03'0 0.0
2015-May-01 04:20N 35°21' E 025°03'18 4.7
2015-May-01 00:33N 35°38' E 024°56'14 9.7
2015-Apr-30 23:08N 35°50' E 024°48'6 9.8
2015-Apr-30 22:33N 35°55' E 024°44'103 9.4
2015-Apr-30 11:33N 37°28' E 023°48'9 9.1
2015-Apr-30 10:34N 37°36' E 023°44'9 9.1
2015-Apr-30 09:33N 37°45' E 023°39'9 9.1
2015-Apr-30 08:33N 37°53' E 023°36'8 7.8
2015-Apr-30 07:33N 38°01' E 023°33'1 0.9
2015-Apr-30 06:33N 38°01' E 023°32'1 0.1
2015-Apr-30 00:14N 38°02' E 023°33'1 0.1
2015-Apr-29 10:29N 38°01' E 023°35'0 0.1
2015-Apr-29 09:33N 38°01' E 023°35'1 1.2
2015-Apr-29 08:32N 38°01' E 023°33'4 4.1
2015-Apr-29 07:33N 37°57' E 023°35'9 9.0
2015-Apr-29 06:34N 37°49' E 023°40'10 9.8
2015-Apr-29 05:33N 37°41' E 023°46'58 9.5
2015-Apr-28 23:27N 37°09' E 024°47'46 8.6
2015-Apr-28 18:06N 36°33' E 025°23'5 9.4
2015-Apr-28 17:33N 36°29' E 025°27'4 4.3
2015-Apr-28 16:33N 36°25' E 025°29'0 0.1
2015-Apr-28 15:31N 36°25' E 025°29'0 0.0
2015-Apr-28 14:33N 36°25' E 025°29'0 0.0
2015-Apr-28 13:32N 36°25' E 025°29'0 0.0
2015-Apr-28 12:32N 36°25' E 025°29'0 0.0
2015-Apr-28 11:31N 36°25' E 025°29'0 0.0
2015-Apr-28 10:30N 36°25' E 025°29'0 0.0
2015-Apr-28 09:32N 36°25' E 025°29'0 0.0
2015-Apr-28 08:32N 36°25' E 025°29'0 0.0
2015-Apr-28 07:33N 36°25' E 025°29'0 0.0
2015-Apr-28 06:33N 36°25' E 025°29'0 0.0
2015-Apr-28 05:33N 36°25' E 025°29'0 0.0
2015-Apr-28 04:32N 36°25' E 025°29'0 0.0
2015-Apr-28 03:31N 36°25' E 025°29'0 0.0
2015-Apr-28 02:33N 36°25' E 025°29'0 0.0
2015-Apr-28 01:32N 36°25' E 025°29'0 0.0
2015-Apr-28 00:31N 36°25' E 025°29'0 0.0
2015-Apr-27 23:33N 36°25' E 025°29'0 0.0
2015-Apr-27 22:33N 36°25' E 025°29'0 0.0
2015-Apr-27 21:32N 36°25' E 025°29'0 0.0
2015-Apr-27 20:30N 36°25' E 025°29'0 0.0
2015-Apr-27 19:33N 36°25' E 025°29'0 0.0
2015-Apr-27 18:32N 36°25' E 025°29'0 0.0
2015-Apr-27 17:32N 36°25' E 025°29'0 0.0
2015-Apr-27 16:33N 36°25' E 025°29'0 0.0
2015-Apr-27 15:32N 36°25' E 025°29'0 0.0
2015-Apr-27 14:31N 36°25' E 025°29'0 0.0
2015-Apr-27 13:30N 36°25' E 025°29'0 0.0
2015-Apr-27 12:33N 36°25' E 025°29'0 0.0
2015-Apr-27 11:32N 36°25' E 025°29'0 0.0
2015-Apr-27 10:33N 36°25' E 025°29'0 0.0
2015-Apr-27 09:32N 36°25' E 025°29'0 0.0
2015-Apr-27 08:31N 36°25' E 025°29'0 0.0
2015-Apr-27 07:32N 36°25' E 025°29'0 0.0
2015-Apr-27 06:32N 36°25' E 025°29'5 4.8
2015-Apr-27 05:33N 36°27' E 025°34'10 9.8
2015-Apr-27 04:33N 36°30' E 025°46'9 9.4
2015-Apr-27 03:33N 36°34' E 025°56'32 9.5
2015-Apr-27 00:11N 36°44' E 026°34'10 9.9
2015-Apr-26 23:10N 36°47' E 026°46'52 2.4
2015-Apr-26 01:29N 37°10' E 025°48'9 9.4
2015-Apr-26 00:33N 37°12' E 025°37'9 9.5
2015-Apr-25 23:33N 37°15' E 025°26'10 9.6
2015-Apr-25 22:33N 37°17' E 025°14'10 9.6
2015-Apr-25 21:33N 37°18' E 025°02'10 9.6
2015-Apr-25 20:33N 37°20' E 024°50'30 9.2
2015-Apr-25 17:17N 37°30' E 024°14'10 9.2
2015-Apr-25 16:14N 37°34' E 024°03'9 9.6
2015-Apr-25 15:15N 37°37' E 023°52'7 9.4
2015-Apr-25 14:33N 37°39' E 023°44'9 9.3
2015-Apr-25 13:33N 37°47' E 023°38'9 9.0
2015-Apr-25 12:33N 37°56' E 023°36'6 6.3
2015-Apr-25 11:33N 38°02' E 023°32'0 0.0
2015-Apr-25 10:33N 38°02' E 023°32'0 0.0
2015-Apr-25 09:33N 38°02' E 023°32'0 0.0
2015-Apr-25 08:33N 38°02' E 023°32'0 0.1
2015-Apr-25 07:33N 38°02' E 023°32'0 0.0
2015-Apr-25 06:31N 38°02' E 023°32'0 0.0
2015-Apr-25 05:14N 38°02' E 023°32'0 0.0
2015-Apr-25 03:33N 38°02' E 023°32'3 2.8
2015-Apr-25 02:33N 38°02' E 023°36'0 0.0
2015-Apr-25 01:33N 38°02' E 023°36'0 0.0
2015-Apr-25 00:32N 38°02' E 023°36'0 0.0
2015-Apr-24 23:33N 38°02' E 023°36'0 0.0
2015-Apr-24 22:33N 38°02' E 023°36'0 0.0
2015-Apr-24 21:33N 38°02' E 023°36'0 0.0
2015-Apr-24 20:33N 38°02' E 023°36'0 0.0
2015-Apr-24 19:33N 38°02' E 023°36'0 0.0
2015-Apr-24 18:33N 38°02' E 023°36'0 0.0
2015-Apr-24 17:33N 38°02' E 023°36'0 0.0
2015-Apr-24 16:32N 38°02' E 023°36'4 4.1
2015-Apr-24 15:33N 38°02' E 023°31'0 0.0
2015-Apr-24 14:33N 38°02' E 023°31'0 0.0
2015-Apr-24 13:33N 38°02' E 023°31'0 0.0
2015-Apr-24 12:34N 38°02' E 023°31'0 0.0
2015-Apr-24 11:33N 38°02' E 023°31'0 0.0
2015-Apr-24 10:34N 38°02' E 023°31'0 0.0
2015-Apr-24 09:33N 38°02' E 023°31'1 1.3
2015-Apr-24 08:33N 38°01' E 023°32'6 5.7
2015-Apr-24 07:34N 37°57' E 023°36'9 9.3
2015-Apr-24 06:33N 37°48' E 023°41'10 9.4
2015-Apr-24 05:32N 37°40' E 023°48'13 9.4
2015-Apr-24 04:09N 37°38' E 024°04'  

Dump ship's entire track history